createdAt,value
2022-09-05T00:00:38.211Z,95473.50
2022-09-05T00:04:14.971Z,95469.19
2022-09-05T00:07:58.463Z,95456.00
2022-09-05T00:11:41.126Z,95451.91
2022-09-05T00:15:16.997Z,95453.16
2022-09-05T00:24:21.446Z,95457.25
2022-09-05T00:24:29.815Z,95448.00
2022-09-05T00:26:33.788Z,95451.72
2022-09-05T00:31:07.720Z,95456.88
2022-09-05T00:33:43.176Z,95450.47
2022-09-05T00:36:55.009Z,95452.75
2022-09-05T00:40:29.579Z,95453.19
2022-09-05T00:43:43.108Z,95450.47
2022-09-05T00:47:10.877Z,95448.63
2022-09-05T00:50:30.792Z,95447.59
2022-09-05T00:53:52.382Z,95451.09
2022-09-05T00:57:22.520Z,95455.41
2022-09-05T01:00:50.351Z,95456.88
2022-09-05T01:04:20.899Z,95450.28
2022-09-05T01:07:59.565Z,95448.44
2022-09-05T01:11:20.877Z,95448.84
2022-09-05T01:15:00.714Z,95442.84
2022-09-05T01:18:32.781Z,95442.25
2022-09-05T01:22:20.382Z,95442.63
2022-09-05T01:25:55.039Z,95440.78
2022-09-05T01:29:16.218Z,95440.53
2022-09-05T01:32:41.410Z,95446.91
2022-09-05T01:36:15.001Z,95451.44
2022-09-05T01:40:11.130Z,95446.06
2022-09-05T01:43:27.887Z,95452.63
2022-09-05T01:46:50.914Z,95449.19
2022-09-05T01:50:18.213Z,95444.44
2022-09-05T01:53:43.580Z,95440.72
2022-09-05T01:57:08.952Z,95443.59
2022-09-05T02:00:23.033Z,95445.22
2022-09-05T02:03:42.186Z,95439.88
2022-09-05T02:07:22.500Z,95446.44
2022-09-05T02:10:54.661Z,95450.97
2022-09-05T02:14:24.340Z,95453.81
2022-09-05T02:17:53.121Z,95454.63
2022-09-05T02:21:10.462Z,95454.00
2022-09-05T02:24:26.054Z,95451.75
2022-09-05T02:28:04.702Z,95452.13
2022-09-05T02:31:25.385Z,95448.84
2022-09-05T02:34:49.525Z,95459.75
2022-09-05T02:39:07.522Z,95463.63
2022-09-05T02:45:14.815Z,95470.16
2022-09-05T02:45:34.755Z,95464.41
2022-09-05T02:49:01.957Z,95467.66
2022-09-05T02:57:33.869Z,95468.22
2022-09-05T02:57:40.795Z,95467.63
2022-09-05T03:00:03.934Z,95468.03
2022-09-05T03:03:27.404Z,95466.81
2022-09-05T03:06:49.978Z,95465.34
2022-09-05T03:10:16.513Z,95469.16
2022-09-05T03:14:22.638Z,95462.66
2022-09-05T03:18:21.613Z,95465.16
2022-09-05T03:22:13.303Z,95468.38
2022-09-05T03:26:22.213Z,95477.84
2022-09-05T03:30:08.428Z,95468.69
2022-09-05T03:33:54.500Z,95468.03
2022-09-05T03:37:50.170Z,95472.13
2022-09-05T03:41:20.825Z,95471.31
2022-09-05T03:45:01.768Z,95470.50
2022-09-05T03:48:44.956Z,95467.81
2022-09-05T03:57:11.479Z,95472.97
2022-09-05T03:57:22.451Z,95480.19
2022-09-05T04:00:11.377Z,95471.94
2022-09-05T04:08:17.305Z,95466.63
2022-09-05T04:08:18.449Z,95467.44
2022-09-05T04:10:46.062Z,95461.47
2022-09-05T04:14:03.916Z,95459.81
2022-09-05T04:17:28.741Z,95467.66
2022-09-05T04:20:45.421Z,95467.81
2022-09-05T04:24:11.676Z,95466.94
2022-09-05T04:27:38.449Z,95458.28
2022-09-05T04:30:56.297Z,95467.31
2022-09-05T04:34:29.225Z,95459.94
2022-09-05T04:37:49.999Z,95456.91
2022-09-05T04:41:04.844Z,95461.13
2022-09-05T04:44:18.201Z,95457.66
2022-09-05T04:47:36.678Z,95458.69
2022-09-05T04:51:13.068Z,95463.25
2022-09-05T04:54:36.190Z,95464.13
2022-09-05T04:57:52.360Z,95464.56
2022-09-05T05:06:00.846Z,95467.13
2022-09-05T05:06:10.495Z,95472.06
2022-09-05T05:08:31.703Z,95484.06
2022-09-05T05:17:59.475Z,95482.72
2022-09-05T05:18:14.371Z,95489.72
2022-09-05T05:19:17.280Z,95485.44
2022-09-05T05:22:29.731Z,95490.19
2022-09-05T05:25:51.786Z,95489.41
2022-09-05T05:29:09.301Z,95491.16
2022-09-05T05:32:44.835Z,95493.16
2022-09-05T05:35:58.779Z,95509.63
2022-09-05T05:39:13.665Z,95501.50
2022-09-05T05:42:25.326Z,95511.59
2022-09-05T05:45:37.644Z,95513.91
2022-09-05T05:48:57.131Z,95513.13
2022-09-05T05:52:42.261Z,95515.28
2022-09-05T05:56:41.983Z,95515.53
2022-09-05T06:00:08.614Z,95518.59
2022-09-05T06:04:05.453Z,95528.69
2022-09-05T06:07:29.258Z,95525.94
2022-09-05T06:15:06.397Z,95519.66
2022-09-05T06:15:41.695Z,95529.66
2022-09-05T06:20:01.780Z,95531.59
2022-09-05T06:23:45.338Z,95536.00
2022-09-05T06:27:27.491Z,95530.03
2022-09-05T06:30:48.817Z,95528.47
2022-09-05T06:34:33.090Z,95523.66
2022-09-05T06:38:01.677Z,95520.72
2022-09-05T06:41:29.005Z,95528.88
2022-09-05T06:44:57.186Z,95519.41
2022-09-05T06:48:45.028Z,95529.53
2022-09-05T06:52:32.125Z,95522.75
2022-09-05T06:56:06.229Z,95517.38
2022-09-05T07:00:03.799Z,95530.16
2022-09-05T07:03:30.553Z,95527.69
2022-09-05T07:07:06.463Z,95519.03
2022-09-05T07:10:38.327Z,95524.47
2022-09-05T07:14:03.424Z,95526.84
2022-09-05T07:17:20.997Z,95532.13
2022-09-05T07:20:37.952Z,95525.53
2022-09-05T07:24:11.158Z,95538.69
2022-09-05T07:27:42.037Z,95531.03
2022-09-05T07:31:26.475Z,95546.16
2022-09-05T07:34:49.311Z,95545.47
2022-09-05T07:38:07.169Z,95547.09
2022-09-05T07:41:23.536Z,95543.38
2022-09-05T07:44:40.449Z,95541.53
2022-09-05T07:48:00.559Z,95541.31
2022-09-05T07:56:47.398Z,95552.22
2022-09-05T07:56:49.749Z,95551.78
2022-09-05T07:58:35.447Z,95539.81
2022-09-05T08:01:48.589Z,95545.75
2022-09-05T08:05:04.454Z,95547.44
2022-09-05T08:08:19.473Z,95544.31
2022-09-05T08:11:35.902Z,95545.66
2022-09-05T08:14:53.720Z,95545.88
2022-09-05T08:18:18.373Z,95546.84
2022-09-05T08:21:41.981Z,95547.88
2022-09-05T08:25:04.645Z,95535.53
2022-09-05T08:28:25.307Z,95548.81
2022-09-05T08:31:52.692Z,95541.78
2022-09-05T08:35:12.205Z,95542.84
2022-09-05T08:38:21.719Z,95544.00
2022-09-05T08:41:50.403Z,95541.03
2022-09-05T08:46:39.567Z,95538.63
2022-09-05T08:49:37.826Z,95525.56
2022-09-05T08:53:28.348Z,95525.22
2022-09-05T08:56:50.980Z,95528.59
2022-09-05T09:00:18.951Z,95516.34
2022-09-05T09:03:40.470Z,95518.31
2022-09-05T09:07:47.400Z,95521.00
2022-09-05T09:10:57.371Z,95511.97
2022-09-05T09:14:52.312Z,95507.56
2022-09-05T09:18:15.629Z,95492.56
2022-09-05T09:21:30.369Z,95503.25
2022-09-05T09:25:08.258Z,95503.22
2022-09-05T09:28:53.793Z,95496.41
2022-09-05T09:32:09.557Z,95489.78
2022-09-05T09:35:36.542Z,95494.31
2022-09-05T09:39:37.448Z,95497.56
2022-09-05T09:42:51.813Z,95496.63
2022-09-05T09:46:18.858Z,95498.13
2022-09-05T09:50:01.747Z,95497.69
2022-09-05T09:53:37.429Z,95487.38
2022-09-05T09:57:24.484Z,95497.84
2022-09-05T10:00:51.398Z,95495.41
2022-09-05T10:10:36.481Z,95498.94
2022-09-05T10:10:53.554Z,95495.97
2022-09-05T10:12:42.373Z,95495.16
2022-09-05T10:16:47.614Z,95488.63
2022-09-05T10:20:29.491Z,95491.06
2022-09-05T10:24:16.107Z,95499.53
2022-09-05T10:27:45.841Z,95494.88
2022-09-05T10:35:06.907Z,95489.16
2022-09-05T10:35:18.286Z,95493.84
2022-09-05T10:38:38.511Z,95484.81
2022-09-05T10:41:53.491Z,95482.59
2022-09-05T10:45:12.606Z,95480.94
2022-09-05T10:48:29.414Z,95476.59
2022-09-05T10:51:52.055Z,95469.81
2022-09-05T10:55:26.278Z,95469.78
2022-09-05T11:01:10.323Z,95463.53
2022-09-05T11:02:39.674Z,95468.69
2022-09-05T11:05:59.634Z,95462.97
2022-09-05T11:09:40.977Z,95457.50
2022-09-05T11:13:10.734Z,95461.84
2022-09-05T11:16:32.664Z,95455.34
2022-09-05T11:19:46.547Z,95453.13
2022-09-05T11:23:03.969Z,95450.09
2022-09-05T11:26:34.750Z,95446.84
2022-09-05T11:29:49.059Z,95451.44
2022-09-05T11:39:52.306Z,95445.34
2022-09-05T11:39:53.444Z,95453.41
2022-09-05T11:41:15.824Z,95442.94
2022-09-05T11:44:38.930Z,95438.75
2022-09-05T11:48:34.132Z,95431.31
2022-09-05T11:52:41.189Z,95435.63
2022-09-05T11:56:29.121Z,95440.44
2022-09-05T12:00:33.391Z,95436.34
2022-09-05T12:04:23.957Z,95431.50
2022-09-05T12:07:57.436Z,95441.06
2022-09-05T12:11:24.935Z,95429.13
2022-09-05T12:14:49.372Z,95427.81
2022-09-05T12:18:21.638Z,95427.06
2022-09-05T12:21:46.027Z,95425.63
2022-09-05T12:27:36.828Z,95418.19
2022-09-05T12:29:28.120Z,95417.00
2022-09-05T12:34:06.442Z,95423.50
2022-09-05T12:40:43.337Z,95416.91
2022-09-05T12:41:32.746Z,95416.78
2022-09-05T12:44:38.962Z,95412.13
2022-09-05T12:47:16.892Z,95403.13
2022-09-05T12:50:43.337Z,95413.00
2022-09-05T12:53:58.999Z,95411.41
2022-09-05T13:02:59.030Z,95411.56
2022-09-05T13:03:01.533Z,95401.16
2022-09-05T13:04:30.253Z,95397.88
2022-09-05T13:07:48.879Z,95400.25
2022-09-05T13:14:46.841Z,95403.13
2022-09-05T13:14:58.511Z,95393.31
2022-09-05T13:18:12.544Z,95390.31
2022-09-05T13:21:27.094Z,95393.69
2022-09-05T13:24:41.487Z,95393.19
2022-09-05T13:27:57.892Z,95388.75
2022-09-05T13:37:19.191Z,95378.97
2022-09-05T13:37:58.605Z,95386.97
2022-09-05T13:38:47.600Z,95379.81
2022-09-05T13:41:59.378Z,95363.38
2022-09-05T13:45:15.601Z,95368.88
2022-09-05T13:52:31.238Z,95362.81
2022-09-05T13:55:45.850Z,95364.63
2022-09-05T13:59:03.433Z,95352.25
2022-09-05T14:06:48.915Z,95343.69
2022-09-05T14:10:50.925Z,95338.00
2022-09-05T14:14:12.068Z,95333.22
2022-09-05T14:17:54.573Z,95333.00
2022-09-05T14:21:26.313Z,95324.19
2022-09-05T14:24:40.981Z,95323.81
2022-09-05T14:27:52.247Z,95327.09
2022-09-05T14:33:35.515Z,95328.56
2022-09-05T14:37:43.860Z,95327.81
2022-09-05T14:38:53.622Z,95331.22
2022-09-05T14:42:28.756Z,95329.84
2022-09-05T14:46:10.347Z,95326.53
2022-09-05T14:49:41.346Z,95332.00
2022-09-05T14:57:28.623Z,95322.31
2022-09-05T15:02:52.811Z,95331.63
2022-09-05T15:07:25.713Z,95333.41
2022-09-05T15:12:21.289Z,95333.63
2022-09-05T15:14:10.066Z,95338.84
2022-09-05T15:17:26.477Z,95342.50
2022-09-05T15:20:40.340Z,95325.13
2022-09-05T15:24:01.461Z,95331.72
2022-09-05T15:27:19.035Z,95329.34
2022-09-05T15:30:35.827Z,95317.66
2022-09-05T15:33:45.148Z,95317.38
2022-09-05T15:37:10.858Z,95314.16
2022-09-05T15:40:27.806Z,95314.94
2022-09-05T15:43:40.142Z,95318.19
2022-09-05T15:46:57.177Z,95312.81
2022-09-05T15:50:22.201Z,95302.53
2022-09-05T15:53:37.157Z,95309.69
2022-09-05T15:56:51.381Z,95308.06
2022-09-05T16:00:05.164Z,95309.69
2022-09-05T16:04:54.997Z,95305.03
2022-09-05T16:10:31.738Z,95299.88
2022-09-05T16:11:07.736Z,95300.38
2022-09-05T16:14:21.501Z,95292.81
2022-09-05T16:23:17.854Z,95296.34
2022-09-05T16:23:27.193Z,95296.59
2022-09-05T16:25:59.652Z,95302.00
2022-09-05T16:29:23.875Z,95298.19
2022-09-05T16:32:41.433Z,95294.94
2022-09-05T16:36:10.889Z,95295.53
2022-09-05T16:39:28.026Z,95298.81
2022-09-05T16:42:46.656Z,95300.72
2022-09-05T16:46:06.513Z,95295.56
2022-09-05T16:49:41.925Z,95295.56
2022-09-05T16:53:28.062Z,95290.13
2022-09-05T16:56:43.957Z,95295.56
2022-09-05T16:59:54.525Z,95295.84
2022-09-05T17:03:28.946Z,95296.13
2022-09-05T17:06:49.995Z,95293.09
2022-09-05T17:10:09.078Z,95290.41
2022-09-05T17:13:42.759Z,95293.91
2022-09-05T17:16:56.451Z,95287.34
2022-09-05T17:20:14.443Z,95281.00
2022-09-05T17:28:46.025Z,95284.50
2022-09-05T17:29:44.574Z,95286.03
2022-09-05T17:35:17.074Z,95286.34
2022-09-05T17:39:02.821Z,95288.66
2022-09-05T17:42:32.755Z,95288.84
2022-09-05T17:45:53.443Z,95280.78
2022-09-05T17:49:19.435Z,95284.72
2022-09-05T17:52:31.201Z,95278.59
2022-09-05T17:56:14.472Z,95276.56
2022-09-05T17:59:28.826Z,95281.09
2022-09-05T18:02:56.267Z,95294.91
2022-09-05T18:06:08.407Z,95291.97
2022-09-05T18:09:58.801Z,95300.13
2022-09-05T18:17:35.883Z,95297.56
2022-09-05T18:20:33.227Z,95306.94
2022-09-05T18:23:54.045Z,95307.53
2022-09-05T18:27:43.846Z,95307.34
2022-09-05T18:30:53.207Z,95313.38
2022-09-05T18:34:46.579Z,95301.88
2022-09-05T18:38:26.119Z,95302.03
2022-09-05T18:41:55.220Z,95303.66
2022-09-05T18:45:28.625Z,95310.53
2022-09-05T18:49:39.294Z,95310.34
2022-09-05T18:52:25.782Z,95305.00
2022-09-05T18:56:13.751Z,95308.19
2022-09-05T18:59:18.256Z,95308.66
2022-09-05T19:02:51.328Z,95315.16
2022-09-05T19:06:36.361Z,95314.66
2022-09-05T19:10:34.041Z,95313.00
2022-09-05T19:13:37.150Z,95304.34
2022-09-05T19:16:48.563Z,95305.88
2022-09-05T19:20:31.501Z,95299.47
2022-09-05T19:23:50.507Z,95302.88
2022-09-05T19:28:47.174Z,95300.66
2022-09-05T19:36:50.443Z,95304.78
2022-09-05T19:37:02.248Z,95304.78
2022-09-05T19:37:46.380Z,95303.41
2022-09-05T19:47:27.912Z,95307.13
2022-09-05T19:47:38.729Z,95304.00
2022-09-05T19:51:37.734Z,95288.66
2022-09-05T19:54:52.596Z,95289.81
2022-09-05T19:58:19.076Z,95293.34
2022-09-05T20:01:28.070Z,95284.66
2022-09-05T20:04:47.001Z,95278.00
2022-09-05T20:08:02.251Z,95278.00
2022-09-05T20:11:12.590Z,95270.63
2022-09-05T20:14:29.168Z,95276.22
2022-09-05T20:17:43.126Z,95276.56
2022-09-05T20:20:57.208Z,95279.16
2022-09-05T20:24:07.982Z,95285.34
2022-09-05T20:27:19.155Z,95285.00
2022-09-05T20:30:36.750Z,95284.63
2022-09-05T20:33:51.722Z,95285.31
2022-09-05T20:43:18.015Z,95281.91
2022-09-05T20:43:18.586Z,95283.66
2022-09-05T20:44:22.712Z,95278.19
2022-09-05T20:54:07.173Z,95280.72
2022-09-05T20:54:13.189Z,95275.84
2022-09-05T20:54:43.491Z,95272.94
2022-09-05T20:57:52.277Z,95273.25
2022-09-05T21:01:21.599Z,95259.88
2022-09-05T21:04:34.135Z,95275.22
2022-09-05T21:07:51.249Z,95268.28
2022-09-05T21:11:15.907Z,95265.34
2022-09-05T21:14:28.492Z,95272.50
2022-09-05T21:17:40.314Z,95263.84
2022-09-05T21:20:57.407Z,95262.63
2022-09-05T21:24:16.644Z,95269.84
2022-09-05T21:27:27.261Z,95264.53
2022-09-05T21:30:39.374Z,95263.19
2022-09-05T21:33:49.586Z,95263.06
2022-09-05T21:37:07.644Z,95269.72
2022-09-05T21:40:17.532Z,95272.03
2022-09-05T21:45:43.402Z,95273.91
2022-09-05T21:47:40.905Z,95274.72
2022-09-05T21:50:31.232Z,95278.75
2022-09-05T21:57:37.456Z,95275.88
2022-09-05T21:59:29.240Z,95275.47
2022-09-05T22:00:51.837Z,95273.09
2022-09-05T22:04:00.832Z,95269.28
2022-09-05T22:07:14.480Z,95270.75
2022-09-05T22:10:23.468Z,95264.28
2022-09-05T22:13:58.951Z,95264.56
2022-09-05T22:17:07.095Z,95273.28
2022-09-05T22:20:20.729Z,95270.69
2022-09-05T22:23:33.848Z,95265.03
2022-09-05T22:26:57.373Z,95253.69
2022-09-05T22:30:16.299Z,95251.91
2022-09-05T22:33:26.870Z,95255.69
2022-09-05T22:36:35.447Z,95257.31
2022-09-05T22:39:45.597Z,95254.28
2022-09-05T22:42:58.259Z,95259.34
2022-09-05T22:46:08.492Z,95256.38
2022-09-05T22:49:16.968Z,95251.75
2022-09-05T22:52:25.499Z,95252.66
2022-09-05T22:55:35.546Z,95256.94
2022-09-05T22:58:46.505Z,95255.81
2022-09-05T23:01:54.880Z,95249.25
2022-09-05T23:05:03.389Z,95257.59
2022-09-05T23:08:12.318Z,95246.16
2022-09-05T23:11:22.138Z,95251.16
2022-09-05T23:14:30.935Z,95254.88
2022-09-05T23:17:39.128Z,95250.31
2022-09-05T23:20:47.302Z,95243.47
2022-09-05T23:23:55.907Z,95253.16
2022-09-05T23:27:05.532Z,95256.03
2022-09-05T23:30:15.379Z,95250.31
2022-09-05T23:33:24.874Z,95250.31
2022-09-05T23:36:35.916Z,95243.53
2022-09-05T23:39:44.547Z,95249.09
2022-09-05T23:42:56.044Z,95244.34
2022-09-05T23:46:05.696Z,95241.06
2022-09-05T23:49:14.187Z,95233.03
2022-09-05T23:52:22.571Z,95227.28
2022-09-05T23:55:31.192Z,95229.16
2022-09-05T23:58:41.382Z,95221.72
